createdAt,value
2023-03-05T00:01:22.556Z,5.05
2023-03-05T00:03:49.248Z,8.05
2023-03-05T00:06:17.320Z,6.40
2023-03-05T00:08:44.151Z,5.97
2023-03-05T00:11:13.145Z,4.97
2023-03-05T00:13:40.273Z,8.82
2023-03-05T00:16:10.744Z,5.47
2023-03-05T00:18:38.491Z,8.73
2023-03-05T00:21:20.074Z,9.93
2023-03-05T00:23:47.542Z,3.28
2023-03-05T00:26:14.135Z,9.82
2023-03-05T00:28:40.847Z,5.38
2023-03-05T00:31:07.550Z,4.82
2023-03-05T00:33:36.516Z,8.07
2023-03-05T00:36:07.150Z,5.32
2023-03-05T00:38:34.946Z,5.57
2023-03-05T00:41:02.594Z,7.90
2023-03-05T00:43:30.055Z,5.45
2023-03-05T00:45:56.709Z,4.75
2023-03-05T00:48:23.406Z,11.50
2023-03-05T00:50:50.105Z,5.32
2023-03-05T00:53:16.838Z,6.13
2023-03-05T00:55:43.588Z,5.97
2023-03-05T00:58:10.285Z,6.43
2023-03-05T01:00:37.169Z,5.25
2023-03-05T01:03:05.671Z,5.03
2023-03-05T01:05:32.362Z,6.40
2023-03-05T01:07:59.038Z,5.38
2023-03-05T01:10:33.337Z,5.38
2023-03-05T01:13:00.010Z,6.05
2023-03-05T01:15:26.818Z,5.00
2023-03-05T01:17:53.776Z,6.75
2023-03-05T01:20:22.387Z,5.18
2023-03-05T01:22:49.751Z,4.13
2023-03-05T01:25:17.634Z,7.03
2023-03-05T01:27:44.768Z,4.85
2023-03-05T01:30:15.362Z,6.20
2023-03-05T01:32:42.798Z,6.45
2023-03-05T01:35:16.895Z,10.35
2023-03-05T01:37:44.013Z,6.55
2023-03-05T01:40:13.873Z,6.47
2023-03-05T01:42:40.539Z,6.03
2023-03-05T01:45:15.868Z,5.07
2023-03-05T01:47:43.436Z,7.20
2023-03-05T01:50:20.059Z,5.45
2023-03-05T01:52:54.063Z,6.60
2023-03-05T01:55:24.253Z,5.75
2023-03-05T01:58:01.129Z,9.45
2023-03-05T02:00:46.533Z,4.93
2023-03-05T02:03:14.321Z,7.25
2023-03-05T02:05:44.262Z,5.80
2023-03-05T02:08:15.996Z,8.65
2023-03-05T02:10:46.796Z,3.72
2023-03-05T02:13:19.853Z,8.00
2023-03-05T02:15:47.608Z,6.85
2023-03-05T02:18:14.265Z,5.47
2023-03-05T02:20:56.432Z,6.15
2023-03-05T02:23:27.389Z,7.10
2023-03-05T02:25:54.765Z,7.60
2023-03-05T02:28:47.109Z,5.43
2023-03-05T02:31:18.532Z,6.35
2023-03-05T02:33:45.967Z,6.70
2023-03-05T02:36:12.934Z,8.02
2023-03-05T02:38:41.148Z,6.55
2023-03-05T02:41:08.237Z,6.95
2023-03-05T02:43:37.564Z,8.15
2023-03-05T02:46:05.012Z,7.53
2023-03-05T02:48:36.877Z,9.75
2023-03-05T02:51:05.561Z,9.70
2023-03-05T02:53:32.369Z,7.45
2023-03-05T02:55:59.038Z,6.35
2023-03-05T02:58:25.633Z,9.93
2023-03-05T03:00:52.282Z,6.25
2023-03-05T03:03:18.982Z,7.30
2023-03-05T03:05:45.612Z,4.45
2023-03-05T03:08:12.233Z,9.30
2023-03-05T03:10:39.063Z,4.40
2023-03-05T03:13:05.621Z,7.28
2023-03-05T03:15:33.343Z,9.60
2023-03-05T03:18:00.063Z,6.95
2023-03-05T03:20:27.211Z,5.22
2023-03-05T03:22:53.873Z,3.03
2023-03-05T03:25:22.987Z,5.47
2023-03-05T03:27:49.712Z,5.05
2023-03-05T03:30:16.660Z,3.05
2023-03-05T03:32:43.595Z,7.68
2023-03-05T03:35:11.350Z,6.03
2023-03-05T03:37:38.440Z,8.18
2023-03-05T03:40:06.607Z,6.28
2023-03-05T03:42:33.348Z,5.88
2023-03-05T03:45:02.079Z,4.00
2023-03-05T03:47:30.674Z,3.58
2023-03-05T03:49:58.688Z,11.30
2023-03-05T03:52:28.572Z,4.30
2023-03-05T03:55:01.364Z,3.97
2023-03-05T03:57:36.942Z,5.22
2023-03-05T04:00:06.915Z,3.42
2023-03-05T04:02:33.883Z,3.38
2023-03-05T04:05:00.540Z,7.45
2023-03-05T04:07:27.170Z,3.45
2023-03-05T04:09:54.142Z,3.67
2023-03-05T04:12:21.155Z,4.78
2023-03-05T04:14:49.057Z,3.83
2023-03-05T04:17:15.966Z,4.13
2023-03-05T04:19:43.108Z,3.78
2023-03-05T04:22:17.448Z,3.65
2023-03-05T04:24:44.474Z,5.55
2023-03-05T04:27:11.414Z,2.60
2023-03-05T04:29:38.225Z,1.77
2023-03-05T04:32:05.538Z,4.85
2023-03-05T04:34:33.102Z,3.40
2023-03-05T04:36:59.818Z,2.28
2023-03-05T04:39:29.138Z,1.80
2023-03-05T04:41:55.736Z,3.90
2023-03-05T04:44:23.197Z,4.55
2023-03-05T04:46:50.036Z,2.35
2023-03-05T04:49:16.643Z,1.23
2023-03-05T04:51:43.238Z,3.97
2023-03-05T04:54:14.620Z,4.80
2023-03-05T04:56:41.250Z,4.78
2023-03-05T04:59:07.801Z,2.13
2023-03-05T05:01:35.314Z,3.70
2023-03-05T05:04:02.158Z,3.28
2023-03-05T05:06:28.736Z,2.35
2023-03-05T05:08:55.462Z,5.30
2023-03-05T05:11:22.037Z,5.18
2023-03-05T05:13:48.595Z,2.05
2023-03-05T05:16:16.137Z,3.60
2023-03-05T05:18:42.759Z,2.10
2023-03-05T05:21:12.523Z,5.50
2023-03-05T05:23:39.354Z,5.63
2023-03-05T05:26:09.727Z,2.38
2023-03-05T05:28:38.314Z,2.55
2023-03-05T05:31:11.145Z,5.13
2023-03-05T05:33:38.249Z,2.67
2023-03-05T05:36:08.696Z,2.70
2023-03-05T05:38:35.318Z,2.88
2023-03-05T05:41:04.384Z,3.05
2023-03-05T05:43:34.146Z,4.07
2023-03-05T05:46:04.170Z,4.57
2023-03-05T05:48:33.080Z,1.95
2023-03-05T05:51:00.344Z,2.90
2023-03-05T05:53:26.996Z,1.30
2023-03-05T05:55:53.616Z,1.50
2023-03-05T05:58:20.402Z,4.38
2023-03-05T06:00:47.057Z,6.43
2023-03-05T06:03:14.218Z,7.38
2023-03-05T06:05:42.548Z,3.92
2023-03-05T06:08:10.103Z,3.55
2023-03-05T06:10:36.749Z,6.53
2023-03-05T06:13:03.334Z,6.05
2023-03-05T06:15:30.682Z,4.15
2023-03-05T06:17:59.907Z,3.72
2023-03-05T06:20:27.732Z,2.40
2023-03-05T06:22:55.226Z,2.95
2023-03-05T06:25:21.983Z,5.32
2023-03-05T06:27:48.538Z,2.75
2023-03-05T06:30:15.401Z,5.07
2023-03-05T06:32:42.037Z,5.00
2023-03-05T06:35:09.026Z,2.65
2023-03-05T06:37:36.493Z,5.30
2023-03-05T06:40:03.442Z,2.30
2023-03-05T06:42:30.027Z,5.10
2023-03-05T06:44:56.606Z,4.10
2023-03-05T06:47:23.169Z,3.78
2023-03-05T06:49:54.763Z,8.38
2023-03-05T06:52:21.334Z,5.80
2023-03-05T06:54:50.702Z,8.93
2023-03-05T06:57:17.317Z,7.72
2023-03-05T06:59:43.916Z,7.82
2023-03-05T07:02:12.207Z,7.38
2023-03-05T07:04:39.115Z,13.93
2023-03-05T07:07:06.953Z,6.68
2023-03-05T07:09:33.552Z,10.63
2023-03-05T07:12:00.152Z,8.25
2023-03-05T07:14:26.738Z,9.38
2023-03-05T07:16:53.347Z,15.00
2023-03-05T07:19:20.067Z,11.63
2023-03-05T07:21:47.369Z,8.55
2023-03-05T07:24:14.237Z,10.38
2023-03-05T07:26:40.849Z,13.35
2023-03-05T07:29:07.457Z,9.80
2023-03-05T07:31:34.200Z,11.00
2023-03-05T07:34:02.760Z,14.32
2023-03-05T07:36:30.065Z,11.70
2023-03-05T07:38:56.819Z,12.18
2023-03-05T07:41:23.775Z,9.27
2023-03-05T07:43:53.704Z,10.02
2023-03-05T07:46:27.080Z,9.30
2023-03-05T07:48:54.694Z,11.05
2023-03-05T07:51:23.952Z,11.07
2023-03-05T07:53:52.313Z,12.65
2023-03-05T07:56:36.836Z,16.70
2023-03-05T07:59:08.606Z,16.05
2023-03-05T08:01:35.596Z,13.70
2023-03-05T08:04:03.882Z,16.25
2023-03-05T08:06:30.971Z,12.30
2023-03-05T08:08:58.616Z,10.93
2023-03-05T08:11:26.055Z,11.10
2023-03-05T08:13:52.647Z,11.18
2023-03-05T08:16:21.460Z,14.80
2023-03-05T08:18:49.796Z,11.73
2023-03-05T08:21:26.826Z,13.93
2023-03-05T08:23:53.471Z,11.60
2023-03-05T08:26:23.521Z,10.93
2023-03-05T08:28:51.020Z,10.15
2023-03-05T08:31:21.407Z,11.93
2023-03-05T08:33:50.325Z,12.32
2023-03-05T08:36:17.260Z,9.75
2023-03-05T08:38:44.661Z,12.73
2023-03-05T08:41:11.320Z,10.23
2023-03-05T08:43:38.279Z,8.73
2023-03-05T08:46:05.582Z,10.10
2023-03-05T08:48:32.724Z,11.70
2023-03-05T08:51:16.821Z,9.45
2023-03-05T08:53:45.494Z,9.65
2023-03-05T08:56:12.392Z,10.80
2023-03-05T08:58:39.348Z,11.38
2023-03-05T09:01:06.662Z,10.60
2023-03-05T09:03:33.604Z,6.97
2023-03-05T09:06:06.621Z,10.75
2023-03-05T09:08:34.084Z,12.02
2023-03-05T09:11:06.493Z,13.88
2023-03-05T09:13:33.838Z,13.00
2023-03-05T09:16:08.130Z,11.15
2023-03-05T09:18:36.561Z,12.82
2023-03-05T09:21:15.745Z,12.13
2023-03-05T09:23:45.081Z,13.23
2023-03-05T09:26:13.017Z,14.57
2023-03-05T09:28:40.607Z,15.23
2023-03-05T09:31:09.352Z,13.57
2023-03-05T09:33:37.336Z,14.63
2023-03-05T09:36:26.285Z,12.45
2023-03-05T09:38:54.013Z,11.05
2023-03-05T09:41:30.091Z,9.48
2023-03-05T09:44:37.518Z,8.73
2023-03-05T09:47:32.510Z,8.90
2023-03-05T09:50:19.764Z,9.25
2023-03-05T09:52:55.489Z,8.80
2023-03-05T09:55:40.827Z,7.75
2023-03-05T09:58:34.189Z,11.82
2023-03-05T10:01:36.261Z,10.10
2023-03-05T10:04:08.755Z,6.43
2023-03-05T10:07:08.933Z,8.50
2023-03-05T10:09:47.369Z,9.27
2023-03-05T10:12:42.174Z,9.30
2023-03-05T10:15:15.900Z,9.65
2023-03-05T10:18:27.597Z,14.13
2023-03-05T10:21:49.443Z,8.45
2023-03-05T10:24:36.389Z,11.13
2023-03-05T10:27:11.390Z,25.58
2023-03-05T10:30:03.287Z,16.65
2023-03-05T10:33:26.418Z,12.10
2023-03-05T10:36:19.330Z,9.82
2023-03-05T10:39:42.412Z,15.73
2023-03-05T10:43:06.868Z,12.15
2023-03-05T10:45:40.422Z,9.57
2023-03-05T10:48:40.677Z,9.70
2023-03-05T10:51:20.874Z,11.10
2023-03-05T10:53:56.698Z,7.65
2023-03-05T10:56:26.801Z,9.55
2023-03-05T10:58:54.321Z,8.32
2023-03-05T11:01:26.534Z,7.75
2023-03-05T11:04:06.091Z,8.27
2023-03-05T11:06:40.188Z,6.43
2023-03-05T11:09:20.587Z,7.05
2023-03-05T11:12:14.498Z,5.95
2023-03-05T11:14:48.771Z,5.38
2023-03-05T11:17:30.669Z,4.93
2023-03-05T11:20:27.276Z,5.90
2023-03-05T11:23:19.815Z,8.23
2023-03-05T11:25:54.973Z,7.38
2023-03-05T11:28:57.280Z,11.35
2023-03-05T11:31:28.718Z,7.05
2023-03-05T11:34:23.788Z,8.13
2023-03-05T11:36:53.367Z,10.73
2023-03-05T11:39:30.187Z,6.32
2023-03-05T11:42:02.155Z,5.80
2023-03-05T11:44:46.589Z,8.30
2023-03-05T11:47:47.826Z,6.88
2023-03-05T11:50:24.545Z,9.40
2023-03-05T11:53:22.418Z,7.57
2023-03-05T11:56:01.642Z,6.43
2023-03-05T11:58:35.894Z,4.95
2023-03-05T12:01:06.964Z,3.97
2023-03-05T12:03:36.949Z,6.68
2023-03-05T12:06:39.026Z,7.18
2023-03-05T12:09:46.600Z,91.80
2023-03-05T12:12:49.016Z,24.90
2023-03-05T12:15:18.649Z,5.55
2023-03-05T12:18:24.512Z,10.35
2023-03-05T12:21:14.824Z,6.28
2023-03-05T12:24:01.242Z,8.82
2023-03-05T12:26:52.586Z,5.03
2023-03-05T12:29:54.227Z,5.47
2023-03-05T12:32:31.303Z,6.10
2023-03-05T12:35:25.897Z,5.72
2023-03-05T12:37:52.488Z,8.63
2023-03-05T12:40:27.092Z,6.78
2023-03-05T12:43:00.700Z,7.60
2023-03-05T12:45:37.776Z,5.03
2023-03-05T12:48:10.491Z,6.70
2023-03-05T12:50:40.123Z,4.72
2023-03-05T12:53:06.918Z,5.40
2023-03-05T12:55:48.382Z,4.75
2023-03-05T12:58:48.324Z,6.10
2023-03-05T13:01:50.348Z,5.28
2023-03-05T13:04:24.667Z,4.88
2023-03-05T13:07:14.323Z,5.80
2023-03-05T13:09:52.210Z,7.07
2023-03-05T13:12:19.046Z,5.65
2023-03-05T13:15:04.094Z,4.18
2023-03-05T13:17:38.028Z,4.35
2023-03-05T13:20:45.877Z,2.75
2023-03-05T13:23:29.357Z,6.53
2023-03-05T13:26:09.763Z,6.85
2023-03-05T13:28:39.145Z,7.75
2023-03-05T13:31:18.944Z,3.20
2023-03-05T13:33:58.957Z,5.22
2023-03-05T13:36:27.116Z,3.92
2023-03-05T13:38:54.286Z,7.63
2023-03-05T13:41:27.650Z,3.72
2023-03-05T13:43:56.821Z,4.40
2023-03-05T13:46:30.391Z,4.13
2023-03-05T13:49:17.114Z,3.67
2023-03-05T13:51:48.407Z,4.35
2023-03-05T13:54:17.703Z,2.60
2023-03-05T13:56:56.383Z,3.17
2023-03-05T13:59:28.866Z,3.08
2023-03-05T14:01:58.086Z,6.93
2023-03-05T14:04:34.411Z,3.70
2023-03-05T14:07:38.446Z,3.63
2023-03-05T14:10:29.274Z,6.20
2023-03-05T14:12:57.716Z,3.83
2023-03-05T14:15:28.870Z,4.03
2023-03-05T14:18:11.848Z,3.20
2023-03-05T14:20:41.210Z,13.85
2023-03-05T14:23:42.813Z,8.07
2023-03-05T14:26:31.195Z,4.75
2023-03-05T14:29:03.797Z,5.75
2023-03-05T14:31:53.844Z,3.45
2023-03-05T14:34:36.557Z,3.30
2023-03-05T14:37:31.374Z,18.88
2023-03-05T14:40:06.166Z,10.35
2023-03-05T14:42:49.588Z,6.28
2023-03-05T14:45:26.786Z,10.48
2023-03-05T14:47:56.813Z,7.53
2023-03-05T14:50:28.485Z,13.48
2023-03-05T14:53:00.488Z,7.72
2023-03-05T14:55:31.737Z,7.07
2023-03-05T14:58:07.322Z,7.90
2023-03-05T15:00:33.939Z,11.15
2023-03-05T15:03:00.708Z,23.55
2023-03-05T15:05:27.537Z,7.05
2023-03-05T15:07:54.256Z,9.75
2023-03-05T15:10:24.869Z,5.30
2023-03-05T15:12:53.075Z,7.13
2023-03-05T15:15:21.164Z,9.75
2023-03-05T15:17:54.503Z,9.30
2023-03-05T15:20:25.399Z,7.68
2023-03-05T15:22:52.888Z,4.72
2023-03-05T15:25:22.198Z,7.15
2023-03-05T15:27:50.706Z,7.78
2023-03-05T15:30:26.749Z,6.40
2023-03-05T15:32:55.314Z,6.03
2023-03-05T15:35:23.379Z,7.72
2023-03-05T15:37:50.649Z,6.07
2023-03-05T15:40:17.634Z,8.18
2023-03-05T15:42:44.335Z,6.55
2023-03-05T15:45:11.093Z,7.75
2023-03-05T15:47:37.750Z,6.10
2023-03-05T15:50:05.572Z,6.32
2023-03-05T15:52:32.378Z,7.82
2023-03-05T15:55:01.110Z,7.72
2023-03-05T15:57:28.370Z,7.70
2023-03-05T15:59:56.100Z,8.75
2023-03-05T16:02:24.595Z,7.85
2023-03-05T16:04:51.210Z,5.28
2023-03-05T16:07:18.100Z,6.72
2023-03-05T16:09:49.409Z,10.35
2023-03-05T16:12:40.676Z,10.90
2023-03-05T16:15:14.065Z,16.02
2023-03-05T16:17:44.031Z,15.55
2023-03-05T16:20:12.302Z,39.75
2023-03-05T16:22:39.342Z,38.22
2023-03-05T16:25:06.617Z,15.18
2023-03-05T16:27:33.872Z,13.77
2023-03-05T16:30:00.537Z,8.35
2023-03-05T16:32:27.281Z,10.13
2023-03-05T16:34:53.927Z,8.88
2023-03-05T16:37:23.406Z,9.57
2023-03-05T16:39:50.396Z,6.53
2023-03-05T16:42:17.559Z,7.03
2023-03-05T16:44:45.204Z,6.45
2023-03-05T16:47:19.262Z,10.55
2023-03-05T16:49:45.875Z,7.10
2023-03-05T16:52:18.710Z,8.15
2023-03-05T16:54:46.660Z,8.00
2023-03-05T16:57:13.272Z,9.27
2023-03-05T16:59:40.801Z,9.93
2023-03-05T17:02:08.047Z,16.08
2023-03-05T17:04:34.887Z,10.48
2023-03-05T17:07:03.358Z,15.45
2023-03-05T17:09:30.970Z,15.15
2023-03-05T17:12:00.767Z,8.10
2023-03-05T17:14:27.573Z,8.00
2023-03-05T17:16:54.224Z,7.25
2023-03-05T17:19:20.899Z,7.13
2023-03-05T17:21:50.937Z,9.57
2023-03-05T17:24:20.107Z,9.55
2023-03-05T17:26:48.043Z,10.48
2023-03-05T17:29:14.681Z,6.43
2023-03-05T17:31:41.519Z,6.85
2023-03-05T17:34:08.236Z,7.07
2023-03-05T17:36:34.871Z,7.78
2023-03-05T17:39:01.703Z,7.25
2023-03-05T17:41:28.269Z,5.90
2023-03-05T17:43:54.923Z,11.98
2023-03-05T17:46:21.496Z,10.95
2023-03-05T17:48:48.425Z,9.00
2023-03-05T17:51:16.578Z,8.40
2023-03-05T17:53:43.341Z,6.95
2023-03-05T17:56:11.526Z,6.88
2023-03-05T17:58:38.567Z,8.57
2023-03-05T18:01:06.874Z,31.45
2023-03-05T18:03:34.488Z,22.88
2023-03-05T18:06:01.247Z,19.83
2023-03-05T18:08:27.933Z,33.78
2023-03-05T18:10:54.724Z,33.88
2023-03-05T18:13:21.390Z,21.20
2023-03-05T18:15:48.061Z,14.85
2023-03-05T18:18:17.834Z,12.27
2023-03-05T18:20:45.345Z,10.20
2023-03-05T18:23:12.429Z,12.65
2023-03-05T18:25:39.171Z,17.77
2023-03-05T18:28:12.336Z,9.27
2023-03-05T18:30:40.772Z,14.18
2023-03-05T18:33:09.335Z,12.90
2023-03-05T18:35:36.745Z,14.85
2023-03-05T18:38:03.410Z,12.45
2023-03-05T18:40:32.586Z,20.60
2023-03-05T18:43:01.335Z,11.80
2023-03-05T18:45:30.515Z,11.60
2023-03-05T18:47:57.245Z,32.42
2023-03-05T18:50:27.141Z,50.20
2023-03-05T18:52:53.937Z,30.25
2023-03-05T18:55:25.852Z,15.30
2023-03-05T18:57:53.204Z,20.38
2023-03-05T19:00:27.109Z,21.02
2023-03-05T19:02:55.178Z,36.17
2023-03-05T19:05:22.590Z,21.27
2023-03-05T19:07:49.362Z,22.92
2023-03-05T19:10:17.504Z,28.48
2023-03-05T19:13:35.770Z,28.48
2023-03-05T19:16:20.492Z,22.02
2023-03-05T19:19:14.909Z,28.48
2023-03-05T19:21:43.792Z,40.40
2023-03-05T19:24:11.308Z,15.07
2023-03-05T19:26:39.135Z,12.10
2023-03-05T19:29:07.116Z,11.13
2023-03-05T19:31:34.533Z,13.75
2023-03-05T19:34:01.666Z,12.15
2023-03-05T19:36:28.320Z,9.20
2023-03-05T19:38:55.171Z,9.82
2023-03-05T19:41:22.101Z,11.95
2023-03-05T19:43:49.754Z,9.90
2023-03-05T19:46:17.460Z,9.38
2023-03-05T19:48:44.742Z,7.47
2023-03-05T19:51:21.433Z,6.47
2023-03-05T19:53:48.976Z,8.98
2023-03-05T19:56:17.109Z,10.13
2023-03-05T19:58:45.439Z,9.57
2023-03-05T20:01:17.795Z,9.00
2023-03-05T20:03:47.580Z,7.35
2023-03-05T20:06:15.272Z,12.45
2023-03-05T20:08:42.101Z,8.82
2023-03-05T20:11:12.157Z,8.30
2023-03-05T20:13:39.531Z,9.50
2023-03-05T20:16:17.029Z,9.25
2023-03-05T20:18:44.760Z,9.18
2023-03-05T20:21:12.116Z,9.80
2023-03-05T20:23:39.324Z,8.25
2023-03-05T20:26:06.571Z,7.07
2023-03-05T20:28:34.028Z,7.15
2023-03-05T20:31:02.036Z,6.78
2023-03-05T20:33:29.526Z,7.35
2023-03-05T20:35:56.490Z,8.18
2023-03-05T20:38:29.366Z,8.20
2023-03-05T20:40:59.536Z,6.78
2023-03-05T20:43:29.557Z,8.02
2023-03-05T20:45:58.489Z,7.85
2023-03-05T20:48:33.074Z,7.72
2023-03-05T20:51:15.347Z,8.73
2023-03-05T20:53:42.570Z,8.48
2023-03-05T20:56:09.213Z,7.35
2023-03-05T20:58:35.860Z,8.55
2023-03-05T21:01:02.519Z,9.57
2023-03-05T21:03:29.166Z,9.85
2023-03-05T21:05:57.001Z,9.35
2023-03-05T21:08:24.402Z,13.07
2023-03-05T21:10:51.068Z,10.68
2023-03-05T21:13:17.973Z,10.52
2023-03-05T21:15:44.610Z,11.18
2023-03-05T21:18:11.328Z,11.30
2023-03-05T21:20:38.006Z,10.98
2023-03-05T21:23:04.639Z,10.70
2023-03-05T21:25:33.090Z,13.88
2023-03-05T21:28:02.295Z,10.05
2023-03-05T21:30:43.448Z,11.02
2023-03-05T21:33:17.326Z,17.63
2023-03-05T21:35:47.649Z,17.17
2023-03-05T21:38:14.450Z,17.73
2023-03-05T21:40:45.353Z,17.20
2023-03-05T21:43:12.867Z,18.70
2023-03-05T21:45:40.578Z,18.73
2023-03-05T21:48:08.404Z,17.70
2023-03-05T21:50:35.692Z,19.23
2023-03-05T21:53:02.972Z,16.13
2023-03-05T21:56:21.866Z,17.02
2023-03-05T21:58:48.787Z,27.05
2023-03-05T22:01:19.103Z,46.92
2023-03-05T22:03:46.112Z,25.88
2023-03-05T22:06:14.755Z,22.98
2023-03-05T22:08:41.787Z,46.85
2023-03-05T22:11:15.029Z,41.00
2023-03-05T22:13:42.214Z,28.58
2023-03-05T22:16:09.562Z,19.77
2023-03-05T22:18:39.222Z,17.50
2023-03-05T22:21:16.601Z,20.00
2023-03-05T22:23:43.373Z,29.50
2023-03-05T22:26:09.982Z,20.13
2023-03-05T22:28:38.758Z,13.70
2023-03-05T22:31:09.943Z,13.55
2023-03-05T22:33:37.022Z,13.27
2023-03-05T22:36:12.052Z,15.23
2023-03-05T22:38:42.802Z,14.02
2023-03-05T22:41:12.416Z,15.35
2023-03-05T22:43:39.823Z,12.52
2023-03-05T22:46:32.514Z,12.50
2023-03-05T22:48:59.088Z,11.18
2023-03-05T22:51:25.678Z,11.85
2023-03-05T22:53:53.451Z,14.25
2023-03-05T22:56:20.992Z,12.25
2023-03-05T22:58:48.181Z,11.43
2023-03-05T23:01:25.809Z,12.68
2023-03-05T23:04:54.848Z,9.70
2023-03-05T23:07:26.229Z,9.88
2023-03-05T23:09:59.710Z,9.05
2023-03-05T23:12:33.550Z,10.13
2023-03-05T23:15:02.081Z,8.65
2023-03-05T23:17:28.854Z,8.95
2023-03-05T23:19:55.498Z,8.73
2023-03-05T23:22:22.202Z,9.35
2023-03-05T23:24:48.777Z,9.90
2023-03-05T23:27:17.520Z,8.15
2023-03-05T23:30:21.831Z,9.25
2023-03-05T23:32:57.155Z,6.25
2023-03-05T23:35:25.523Z,7.07
2023-03-05T23:37:56.640Z,9.25
2023-03-05T23:40:33.255Z,7.03
2023-03-05T23:43:00.235Z,7.47
2023-03-05T23:45:28.177Z,9.05
2023-03-05T23:47:55.426Z,8.10
2023-03-05T23:50:26.147Z,9.07
2023-03-05T23:52:54.300Z,9.15
2023-03-05T23:55:39.437Z,7.05
2023-03-05T23:58:07.155Z,11.02
